DLH3LF EDDF-EDDL
Flight info
| Callsign | DLH3LF |
|---|---|
| Flight time | 0h 28m |
| Altitude | 18000 |
| Route | MARUN3W/25C MARUN Y152 ARPEG Z850 ADEMI T854 DOMUX DOMUX1A |
| Aircraft | A321/M-SDE3FGHIRWY/LB1 |
Departure
| Time | 2026-05-07 16:04 |
|---|---|
| Airport | Frankfurt Main Airport (EDDF) |
Arrival
| Time | 2026-05-07 16:32 |
|---|---|
| Airport | Düsseldorf Airport (EDDL) |
| Time | Latitude | Longitude | Altitude | Speed | Heading |
|---|---|---|---|---|---|
| 2026-05-07 15:46 | 50.04982 | 8.59149 | 362 ft | 0 kts | 160° |
| 2026-05-07 15:53 | 50.04984 | 8.59148 | 362 ft | 2 kts | 160° |
| 2026-05-07 15:53 | 50.05000 | 8.59139 | 363 ft | 2 kts | 161° |
| 2026-05-07 15:54 | 50.05015 | 8.59131 | 362 ft | 2 kts | 159° |
| 2026-05-07 15:54 | 50.05030 | 8.59122 | 360 ft | 2 kts | 158° |
| 2026-05-07 15:54 | 50.05046 | 8.59113 | 365 ft | 2 kts | 195° |
| 2026-05-07 15:54 | 50.05060 | 8.59126 | 362 ft | 2 kts | 251° |
| 2026-05-07 15:55 | 50.05065 | 8.59150 | 362 ft | 2 kts | 249° |
| 2026-05-07 15:55 | 50.05069 | 8.59165 | 359 ft | 0 kts | 252° |
| 2026-05-07 15:56 | 50.05069 | 8.59164 | 359 ft | 0 kts | 251° |
| 2026-05-07 15:57 | 50.05068 | 8.59161 | 359 ft | 0 kts | 250° |
| 2026-05-07 15:57 | 50.05063 | 8.59140 | 363 ft | 1 kts | 250° |
| 2026-05-07 15:57 | 50.05059 | 8.59124 | 362 ft | 2 kts | 250° |
| 2026-05-07 15:57 | 50.05039 | 8.59037 | 362 ft | 16 kts | 250° |
| 2026-05-07 15:58 | 50.04996 | 8.58860 | 361 ft | 18 kts | 249° |
| 2026-05-07 15:58 | 50.04946 | 8.58687 | 368 ft | 16 kts | 221° |
| 2026-05-07 15:58 | 50.04848 | 8.58706 | 365 ft | 14 kts | 159° |
| 2026-05-07 15:58 | 50.04765 | 8.58755 | 369 ft | 12 kts | 159° |
| 2026-05-07 15:59 | 50.04692 | 8.58766 | 371 ft | 10 kts | 186° |
| 2026-05-07 15:59 | 50.04644 | 8.58758 | 370 ft | 0 kts | 186° |
| 2026-05-07 16:01 | 50.04632 | 8.58756 | 370 ft | 6 kts | 186° |
| 2026-05-07 16:01 | 50.04589 | 8.58720 | 371 ft | 9 kts | 219° |
| 2026-05-07 16:02 | 50.04527 | 8.58665 | 371 ft | 8 kts | 172° |
| 2026-05-07 16:02 | 50.04498 | 8.58628 | 371 ft | 5 kts | 246° |
| 2026-05-07 16:02 | 50.04494 | 8.58615 | 371 ft | 0 kts | 248° |
| 2026-05-07 16:03 | 50.04490 | 8.58598 | 370 ft | 8 kts | 249° |
| 2026-05-07 16:03 | 50.04406 | 8.58250 | 371 ft | 70 kts | 250° |
| 2026-05-07 16:03 | 50.04154 | 8.57191 | 369 ft | 135 kts | 250° |
| 2026-05-07 16:04 | 50.03762 | 8.55565 | 427 ft | 177 kts | 249° |
| 2026-05-07 16:04 | 50.03328 | 8.53739 | 1110 ft | 181 kts | 250° |
| 2026-05-07 16:04 | 50.02892 | 8.51905 | 1769 ft | 182 kts | 252° |
| 2026-05-07 16:04 | 50.02366 | 8.50101 | 2373 ft | 185 kts | 237° |
| 2026-05-07 16:05 | 50.01417 | 8.48749 | 2962 ft | 189 kts | 213° |
| 2026-05-07 16:05 | 50.00195 | 8.47978 | 3550 ft | 193 kts | 195° |
| 2026-05-07 16:05 | 49.98820 | 8.47595 | 3920 ft | 210 kts | 190° |
| 2026-05-07 16:05 | 49.97358 | 8.47267 | 4362 ft | 220 kts | 189° |
| 2026-05-07 16:06 | 49.95839 | 8.46917 | 4997 ft | 221 kts | 193° |
| 2026-05-07 16:06 | 49.94292 | 8.46332 | 5316 ft | 239 kts | 197° |
| 2026-05-07 16:06 | 49.92641 | 8.45549 | 5650 ft | 254 kts | 205° |
| 2026-05-07 16:06 | 49.91291 | 8.43880 | 6404 ft | 249 kts | 238° |
| 2026-05-07 16:07 | 49.90651 | 8.41398 | 7072 ft | 252 kts | 263° |
| 2026-05-07 16:07 | 49.90796 | 8.38710 | 7707 ft | 254 kts | 290° |
| 2026-05-07 16:07 | 49.91760 | 8.36477 | 8468 ft | 253 kts | 319° |
| 2026-05-07 16:07 | 49.93296 | 8.35128 | 9172 ft | 259 kts | 336° |
| 2026-05-07 16:08 | 49.95023 | 8.34010 | 9538 ft | 276 kts | 336° |
| 2026-05-07 16:08 | 49.96821 | 8.32859 | 10156 ft | 282 kts | 336° |
| 2026-05-07 16:08 | 49.98693 | 8.31656 | 10376 ft | 302 kts | 336° |
| 2026-05-07 16:08 | 50.00708 | 8.30354 | 10511 ft | 324 kts | 336° |
| 2026-05-07 16:09 | 50.02887 | 8.29225 | 10874 ft | 335 kts | 347° |
| 2026-05-07 16:09 | 50.05224 | 8.28846 | 11441 ft | 341 kts | 359° |
| 2026-05-07 16:09 | 50.07597 | 8.29287 | 12038 ft | 346 kts | 12° |
| 2026-05-07 16:09 | 50.09910 | 8.30418 | 12644 ft | 350 kts | 17° |
| 2026-05-07 16:10 | 50.12230 | 8.31632 | 12979 ft | 353 kts | 17° |
| 2026-05-07 16:10 | 50.14562 | 8.32854 | 13035 ft | 353 kts | 17° |
| 2026-05-07 16:10 | 50.16892 | 8.34076 | 13058 ft | 353 kts | 17° |
| 2026-05-07 16:10 | 50.19234 | 8.35309 | 13570 ft | 357 kts | 17° |
| 2026-05-07 16:11 | 50.21598 | 8.36531 | 14173 ft | 359 kts | 14° |
| 2026-05-07 16:11 | 50.24038 | 8.37008 | 14689 ft | 359 kts | 356° |
| 2026-05-07 16:11 | 50.26478 | 8.36219 | 15216 ft | 359 kts | 336° |
| 2026-05-07 16:11 | 50.28611 | 8.34207 | 15732 ft | 360 kts | 317° |
| 2026-05-07 16:12 | 50.30237 | 8.31227 | 16251 ft | 362 kts | 305° |
| 2026-05-07 16:12 | 50.31714 | 8.28007 | 16763 ft | 366 kts | 305° |
| 2026-05-07 16:12 | 50.33204 | 8.24753 | 17280 ft | 369 kts | 305° |
| 2026-05-07 16:12 | 50.34709 | 8.21473 | 17815 ft | 372 kts | 305° |
| 2026-05-07 16:13 | 50.36209 | 8.18220 | 18026 ft | 374 kts | 305° |
| 2026-05-07 16:13 | 50.37740 | 8.14906 | 18049 ft | 376 kts | 305° |
| 2026-05-07 16:13 | 50.39277 | 8.11576 | 18057 ft | 376 kts | 305° |
| 2026-05-07 16:13 | 50.40807 | 8.08250 | 18053 ft | 376 kts | 305° |
| 2026-05-07 16:14 | 50.42334 | 8.04918 | 18047 ft | 376 kts | 305° |
| 2026-05-07 16:14 | 50.43862 | 8.01576 | 18055 ft | 376 kts | 305° |
| 2026-05-07 16:14 | 50.45388 | 7.98235 | 18060 ft | 376 kts | 305° |
| 2026-05-07 16:14 | 50.46911 | 7.94899 | 18047 ft | 376 kts | 305° |
| 2026-05-07 16:15 | 50.48431 | 7.91567 | 18047 ft | 376 kts | 305° |
| 2026-05-07 16:15 | 50.49951 | 7.88227 | 18056 ft | 376 kts | 304° |
| 2026-05-07 16:15 | 50.51470 | 7.84886 | 18049 ft | 376 kts | 304° |
| 2026-05-07 16:15 | 50.52990 | 7.81543 | 18066 ft | 376 kts | 304° |
| 2026-05-07 16:16 | 50.54506 | 7.78204 | 18052 ft | 375 kts | 304° |
| 2026-05-07 16:16 | 50.56023 | 7.74867 | 18060 ft | 375 kts | 304° |
| 2026-05-07 16:16 | 50.57028 | 7.72653 | 18061 ft | 375 kts | 304° |
| 2026-05-07 16:16 | 50.58542 | 7.69316 | 18050 ft | 375 kts | 304° |
| 2026-05-07 16:17 | 50.60055 | 7.65969 | 18063 ft | 375 kts | 304° |
| 2026-05-07 16:17 | 50.61562 | 7.62627 | 18048 ft | 375 kts | 304° |
| 2026-05-07 16:17 | 50.63070 | 7.59276 | 18056 ft | 375 kts | 304° |
| 2026-05-07 16:17 | 50.65072 | 7.54828 | 18055 ft | 375 kts | 304° |
| 2026-05-07 16:18 | 50.66089 | 7.52563 | 18045 ft | 375 kts | 304° |
| 2026-05-07 16:18 | 50.67598 | 7.49207 | 18051 ft | 375 kts | 304° |
| 2026-05-07 16:18 | 50.69115 | 7.45821 | 18081 ft | 380 kts | 304° |
| 2026-05-07 16:18 | 50.70635 | 7.42427 | 18046 ft | 375 kts | 304° |
| 2026-05-07 16:19 | 50.72135 | 7.39069 | 18049 ft | 374 kts | 304° |
| 2026-05-07 16:19 | 50.73597 | 7.35789 | 17666 ft | 370 kts | 304° |
| 2026-05-07 16:19 | 50.75090 | 7.32428 | 17132 ft | 375 kts | 304° |
| 2026-05-07 16:19 | 50.76567 | 7.29044 | 16596 ft | 374 kts | 303° |
| 2026-05-07 16:20 | 50.78034 | 7.25670 | 15954 ft | 371 kts | 303° |
| 2026-05-07 16:20 | 50.79492 | 7.22310 | 15322 ft | 368 kts | 303° |
| 2026-05-07 16:20 | 50.80933 | 7.18985 | 14705 ft | 365 kts | 303° |
| 2026-05-07 16:20 | 50.82360 | 7.15680 | 14099 ft | 363 kts | 303° |
| 2026-05-07 16:21 | 50.83775 | 7.12396 | 13457 ft | 360 kts | 303° |
| 2026-05-07 16:21 | 50.85180 | 7.09129 | 12789 ft | 357 kts | 303° |
| 2026-05-07 16:21 | 50.86574 | 7.05885 | 12151 ft | 355 kts | 303° |
| 2026-05-07 16:21 | 50.87956 | 7.02671 | 11500 ft | 352 kts | 303° |
| 2026-05-07 16:22 | 50.89328 | 6.99477 | 10869 ft | 350 kts | 303° |
| 2026-05-07 16:22 | 50.90691 | 6.96300 | 10267 ft | 347 kts | 303° |
| 2026-05-07 16:22 | 50.91935 | 6.93389 | 9674 ft | 345 kts | 303° |
| 2026-05-07 16:22 | 50.93271 | 6.90248 | 9004 ft | 343 kts | 303° |
| 2026-05-07 16:23 | 50.94595 | 6.87126 | 8345 ft | 338 kts | 303° |
| 2026-05-07 16:23 | 50.95868 | 6.84115 | 7878 ft | 318 kts | 303° |
| 2026-05-07 16:23 | 50.97071 | 6.81250 | 7618 ft | 307 kts | 303° |
| 2026-05-07 16:23 | 50.98229 | 6.78477 | 7366 ft | 297 kts | 303° |
| 2026-05-07 16:24 | 50.99338 | 6.75813 | 7118 ft | 288 kts | 303° |
| 2026-05-07 16:24 | 51.00423 | 6.73198 | 6862 ft | 280 kts | 303° |
| 2026-05-07 16:24 | 51.01473 | 6.70656 | 6610 ft | 273 kts | 303° |
| 2026-05-07 16:24 | 51.02502 | 6.68155 | 6369 ft | 266 kts | 303° |
| 2026-05-07 16:25 | 51.03492 | 6.65740 | 6115 ft | 259 kts | 303° |
| 2026-05-07 16:25 | 51.04468 | 6.63346 | 5846 ft | 254 kts | 303° |
| 2026-05-07 16:25 | 51.05412 | 6.61012 | 5580 ft | 249 kts | 303° |
| 2026-05-07 16:25 | 51.06331 | 6.58718 | 5321 ft | 244 kts | 303° |
| 2026-05-07 16:26 | 51.07229 | 6.56461 | 5064 ft | 239 kts | 303° |
| 2026-05-07 16:26 | 51.08220 | 6.54407 | 4813 ft | 232 kts | 319° |
| 2026-05-07 16:26 | 51.09459 | 6.52791 | 4553 ft | 230 kts | 323° |
| 2026-05-07 16:26 | 51.10734 | 6.51250 | 4293 ft | 230 kts | 327° |
| 2026-05-07 16:27 | 51.12175 | 6.50201 | 4069 ft | 227 kts | 347° |
| 2026-05-07 16:27 | 51.13742 | 6.49953 | 4007 ft | 227 kts | 5° |
| 2026-05-07 16:27 | 51.15283 | 6.50511 | 4003 ft | 226 kts | 22° |
| 2026-05-07 16:27 | 51.16592 | 6.51759 | 3816 ft | 216 kts | 39° |
| 2026-05-07 16:28 | 51.17574 | 6.53527 | 3571 ft | 210 kts | 51° |
| 2026-05-07 16:28 | 51.18441 | 6.55332 | 3303 ft | 200 kts | 52° |
| 2026-05-07 16:28 | 51.19274 | 6.57062 | 3008 ft | 192 kts | 51° |
| 2026-05-07 16:28 | 51.20073 | 6.58726 | 2769 ft | 186 kts | 51° |
| 2026-05-07 16:29 | 51.20836 | 6.60315 | 2519 ft | 180 kts | 51° |
| 2026-05-07 16:29 | 51.21587 | 6.61879 | 2275 ft | 175 kts | 51° |
| 2026-05-07 16:29 | 51.22317 | 6.63401 | 2039 ft | 170 kts | 51° |
| 2026-05-07 16:29 | 51.23023 | 6.64874 | 1816 ft | 165 kts | 51° |
| 2026-05-07 16:30 | 51.23712 | 6.66313 | 1591 ft | 161 kts | 51° |
| 2026-05-07 16:30 | 51.24385 | 6.67720 | 1374 ft | 158 kts | 51° |
| 2026-05-07 16:30 | 51.25035 | 6.69086 | 1213 ft | 148 kts | 51° |
| 2026-05-07 16:30 | 51.25646 | 6.70367 | 968 ft | 145 kts | 51° |
| 2026-05-07 16:31 | 51.26266 | 6.71660 | 755 ft | 148 kts | 51° |
| 2026-05-07 16:31 | 51.26888 | 6.72961 | 531 ft | 146 kts | 52° |
| 2026-05-07 16:31 | 51.27499 | 6.74244 | 350 ft | 143 kts | 52° |
| 2026-05-07 16:31 | 51.28103 | 6.75504 | 174 ft | 142 kts | 51° |
| 2026-05-07 16:32 | 51.28658 | 6.76658 | 131 ft | 103 kts | 53° |
| 2026-05-07 16:32 | 51.28913 | 6.77198 | 129 ft | 30 kts | 53° |
| 2026-05-07 16:32 | 51.29005 | 6.77394 | 127 ft | 13 kts | 57° |
| 2026-05-07 16:32 | 51.29023 | 6.77536 | 127 ft | 15 kts | 102° |
| 2026-05-07 16:33 | 51.28949 | 6.77643 | 127 ft | 14 kts | 146° |
| 2026-05-07 16:33 | 51.28875 | 6.77586 | 127 ft | 14 kts | 232° |
| 2026-05-07 16:33 | 51.28812 | 6.77453 | 128 ft | 16 kts | 233° |
| 2026-05-07 16:33 | 51.28741 | 6.77302 | 124 ft | 18 kts | 232° |
| 2026-05-07 16:34 | 51.28660 | 6.77132 | 127 ft | 21 kts | 233° |
| 2026-05-07 16:34 | 51.28547 | 6.76896 | 126 ft | 31 kts | 232° |
| 2026-05-07 16:34 | 51.28431 | 6.76652 | 126 ft | 19 kts | 232° |
| 2026-05-07 16:34 | 51.28356 | 6.76499 | 123 ft | 13 kts | 222° |
| 2026-05-07 16:35 | 51.28279 | 6.76504 | 128 ft | 10 kts | 185° |
| 2026-05-07 16:35 | 51.28226 | 6.76442 | 129 ft | 10 kts | 199° |
| 2026-05-07 16:35 | 51.28135 | 6.76420 | 130 ft | 12 kts | 185° |
| 2026-05-07 16:35 | 51.28112 | 6.76494 | 127 ft | 8 kts | 96° |
| 2026-05-07 16:36 | 51.28109 | 6.76531 | 129 ft | 1 kts | 96° |
| 2026-05-07 16:36 | 51.28109 | 6.76532 | 129 ft | 0 kts | 96° |